Time;durP1;ratioP1;P1;durP2;ratioP2;P2;SDS_P1;SDS_P2;PMS_P1;PMS_P2;Temp;Humidity;BMP_temperature;BMP_pressure;BME280_temperature;BME280_humidity;BME280_pressure;Samples;Min_cycle;Max_cycle;Signal;HPM_P1;HPM_P2
2021/03/10 00:00:06;;;;;;;44.72;40.63;;;6.20;78.30;;;;;;5092285;28;20221;-76
2021/03/10 00:02:32;;;;;;;40.30;36.83;;;6.20;82.20;;;;;;5092406;28;20234;-76
2021/03/10 00:04:59;;;;;;;41.47;38.10;;;6.10;81.20;;;;;;5092291;28;20213;-76
2021/03/10 00:07:26;;;;;;;42.95;39.08;;;6.20;79.40;;;;;;5092196;28;20239;-76
2021/03/10 00:09:52;;;;;;;41.22;37.72;;;6.10;78.50;;;;;;5092150;28;20273;-76
2021/03/10 00:12:19;;;;;;;42.75;39.03;;;6.10;78.30;;;;;;5092386;28;20287;-76
2021/03/10 00:14:45;;;;;;;41.83;37.95;;;6.10;78.30;;;;;;5092283;28;20203;-77
2021/03/10 00:17:12;;;;;;;43.70;39.85;;;6.20;78.20;;;;;;5092129;28;20224;-76
2021/03/10 00:19:38;;;;;;;40.78;37.00;;;6.30;78.10;;;;;;5092210;28;20581;-76
2021/03/10 00:22:04;;;;;;;42.92;39.15;;;6.20;78.00;;;;;;5092190;28;20664;-76
2021/03/10 00:24:32;;;;;;;42.85;38.97;;;6.30;77.60;;;;;;5092302;28;20197;-76
2021/03/10 00:26:58;;;;;;;45.08;41.00;;;6.30;77.50;;;;;;5091982;28;20207;-76
2021/03/10 00:29:24;;;;;;;43.90;40.20;;;6.20;77.60;;;;;;5092037;28;20385;-76
2021/03/10 00:31:50;;;;;;;44.97;40.90;;;6.20;77.80;;;;;;5092091;28;20680;-76
2021/03/10 00:34:17;;;;;;;45.17;41.22;;;6.20;78.00;;;;;;5092232;28;20287;-77
2021/03/10 00:36:43;;;;;;;45.65;41.50;;;6.10;78.50;;;;;;5091879;28;20221;-76
2021/03/10 00:39:10;;;;;;;43.35;39.58;;;6.10;79.00;;;;;;5091966;28;20224;-77
2021/03/10 00:41:37;;;;;;;65.07;42.53;;;6.10;79.30;;;;;;5092016;28;20246;-76
2021/03/10 00:44:03;;;;;;;43.30;39.40;;;6.10;80.00;;;;;;5091534;28;20695;-76
2021/03/10 00:46:30;;;;;;;43.63;39.72;;;6.00;80.60;;;;;;5091820;28;20223;-77
2021/03/10 00:48:56;;;;;;;45.50;41.05;;;6.10;80.10;;;;;;5093753;28;20769;-76
2021/03/10 00:51:22;;;;;;;46.58;42.22;;;6.00;80.00;;;;;;5095596;28;20199;-76
2021/03/10 00:53:49;;;;;;;44.40;40.30;;;6.10;79.90;;;;;;5095615;28;20665;-76
2021/03/10 00:56:15;;;;;;;45.83;41.40;;;5.90;82.20;;;;;;5095179;28;20202;-76
2021/03/10 00:58:42;;;;;;;58.47;41.58;;;5.90;82.10;;;;;;5095366;28;20706;-77
2021/03/10 01:01:09;;;;;;;45.40;41.15;;;5.90;82.80;;;;;;5095377;28;20204;-76
2021/03/10 01:03:35;;;;;;;46.63;42.17;;;6.00;82.90;;;;;;5095199;28;20203;-76
2021/03/10 01:06:01;;;;;;;47.28;42.97;;;6.00;81.90;;;;;;5095062;28;20227;-76
2021/03/10 01:08:28;;;;;;;46.03;41.53;;;6.00;81.30;;;;;;5095193;28;20757;-76
2021/03/10 01:10:54;;;;;;;45.28;40.88;;;6.00;81.20;;;;;;5095181;28;20282;-76
2021/03/10 01:13:20;;;;;;;45.72;41.38;;;6.00;81.00;;;;;;5095293;28;20200;-77
2021/03/10 01:15:47;;;;;;;42.83;39.03;;;6.00;81.10;;;;;;5095057;28;20188;-76
2021/03/10 01:18:14;;;;;;;43.45;39.40;;;5.90;81.80;;;;;;5095054;28;20200;-76
2021/03/10 01:20:40;;;;;;;44.33;40.28;;;5.80;86.90;;;;;;5095093;28;20679;-76
2021/03/10 01:23:07;;;;;;;45.80;41.53;;;5.80;86.20;;;;;;5095017;28;20205;-76
2021/03/10 01:25:33;;;;;;;44.78;40.67;;;5.70;83.90;;;;;;5094748;28;20316;-75
2021/03/10 01:28:00;;;;;;;46.20;41.45;;;5.70;83.70;;;;;;5094742;28;20227;-76
2021/03/10 01:30:26;;;;;;;42.25;38.45;;;5.80;82.90;;;;;;5094849;28;20196;-76
2021/03/10 01:32:53;;;;;;;44.58;40.10;;;5.70;83.50;;;;;;5094887;28;20286;-76
2021/03/10 01:35:20;;;;;;;627.50;101.25;;;5.70;84.70;;;;;;5094750;28;20681;-76
2021/03/10 01:37:46;;;;;;;45.97;41.60;;;5.70;89.40;;;;;;5094554;28;20222;-77
2021/03/10 01:40:15;;;;;;;47.00;42.22;;;5.60;87.00;;;;;;5094622;28;20580;-76
2021/03/10 01:42:43;;;;;;;45.30;40.70;;;5.60;86.20;;;;;;5094704;28;20203;-76
2021/03/10 01:45:10;;;;;;;44.35;40.33;;;5.60;85.50;;;;;;5094552;28;20343;-76
2021/03/10 01:47:39;;;;;;;44.38;40.33;;;5.50;85.10;;;;;;5094424;28;20660;-76
2021/03/10 01:50:08;;;;;;;46.45;41.88;;;5.50;84.90;;;;;;5094391;28;20302;-77
2021/03/10 01:52:35;;;;;;;43.47;39.47;;;5.40;84.30;;;;;;5094422;28;20199;-76
2021/03/10 01:55:02;;;;;;;46.90;42.17;;;5.40;84.00;;;;;;5094529;28;20772;-76
2021/03/10 01:57:29;;;;;;;45.83;41.55;;;5.40;88.00;;;;;;5094134;28;20250;-76
2021/03/10 01:59:56;;;;;;;45.22;40.80;;;5.30;86.00;;;;;;5093643;28;20219;-76
2021/03/10 02:02:23;;;;;;;45.05;40.50;;;5.30;85.40;;;;;;5094233;28;20221;-76
2021/03/10 02:04:49;;;;;;;45.78;41.28;;;5.30;85.10;;;;;;5094088;28;20277;-76
2021/03/10 02:07:23;;;;;;;45.47;41.38;;;5.20;84.90;;;;;;5094007;28;20192;-76
2021/03/10 02:10:00;;;;;;;50.05;42.28;;;5.20;84.70;;;;;;5094172;28;20215;-76
2021/03/10 02:12:34;;;;;;;93.25;42.97;;;5.30;89.70;;;;;;5094076;28;20190;-76
2021/03/10 02:15:05;;;;;;;284.15;64.68;;;5.20;90.90;;;;;;5094144;28;20195;-76
2021/03/10 02:17:37;;;;;;;45.65;41.22;;;5.20;91.30;;;;;;5093795;28;20281;-76
2021/03/10 02:20:33;;;;;;;46.17;41.70;;;5.20;92.10;;;;;;5093865;28;20225;-76
2021/03/10 02:23:36;;;;;;;44.92;40.72;;;5.10;88.70;;;;;;5093963;28;20236;-76
2021/03/10 02:26:47;;;;;;;46.00;41.47;;;5.20;88.00;;;;;;5093594;28;20223;-76
2021/03/10 02:29:16;;;;;;;47.08;42.58;;;5.30;86.60;;;;;;5057356;28;20216;-76
2021/03/10 02:31:49;;;;;;;45.85;41.10;;;5.30;85.40;;;;;;5093735;28;20203;-76
2021/03/10 02:34:17;;;;;;;45.97;41.58;;;5.30;88.50;;;;;;5093754;28;20207;-76
2021/03/10 02:36:46;;;;;;;46.33;41.53;;;5.20;87.60;;;;;;5093370;28;20196;-76
2021/03/10 02:39:13;;;;;;;45.50;41.00;;;5.30;86.80;;;;;;5093472;28;20702;-76
2021/03/10 02:41:41;;;;;;;45.67;41.20;;;5.20;85.30;;;;;;5093651;28;20196;-76
2021/03/10 02:44:09;;;;;;;46.30;42.00;;;5.20;85.30;;;;;;5093186;28;20205;-76
2021/03/10 02:46:36;;;;;;;48.00;43.15;;;5.20;84.90;;;;;;5093133;28;20222;-76
2021/03/10 02:49:05;;;;;;;44.30;39.90;;;5.20;84.70;;;;;;5093041;28;20265;-76
2021/03/10 02:51:32;;;;;;;46.83;42.30;;;5.20;87.50;;;;;;5093332;28;20268;-76
2021/03/10 02:53:58;;;;;;;89.45;44.78;;;5.20;86.80;;;;;;5093372;28;20253;-76
2021/03/10 02:56:25;;;;;;;49.70;44.58;;;5.20;88.80;;;;;;5093130;28;20199;-77
2021/03/10 02:58:52;;;;;;;47.13;42.40;;;5.20;91.20;;;;;;5093130;28;20215;-76
2021/03/10 03:01:19;;;;;;;47.35;42.55;;;5.30;88.00;;;;;;5093141;28;20195;-76
2021/03/10 03:03:46;;;;;;;47.30;42.47;;;5.30;85.60;;;;;;5093066;28;20625;-76
2021/03/10 03:06:13;;;;;;;46.70;42.08;;;5.30;85.20;;;;;;5092955;28;20220;-76
2021/03/10 03:08:39;;;;;;;47.67;43.03;;;5.20;85.50;;;;;;5093180;28;20272;-76
2021/03/10 03:11:06;;;;;;;46.08;41.53;;;5.20;88.40;;;;;;5092839;28;20206;-76
2021/03/10 03:13:34;;;;;;;46.58;42.00;;;5.20;90.00;;;;;;5092601;28;20202;-76
2021/03/10 03:16:01;;;;;;;48.08;43.17;;;5.20;88.70;;;;;;5092778;28;20194;-76
2021/03/10 03:18:29;;;;;;;46.67;41.85;;;5.30;85.50;;;;;;5093020;28;20692;-76
2021/03/10 03:20:59;;;;;;;46.20;41.40;;;5.20;85.00;;;;;;5093050;28;20195;-76
2021/03/10 03:23:27;;;;;;;47.67;42.67;;;5.00;85.10;;;;;;5093178;28;20194;-76
2021/03/10 03:25:54;;;;;;;48.67;43.70;;;5.00;85.30;;;;;;5092713;28;20226;-76
2021/03/10 03:28:24;;;;;;;49.03;44.03;;;5.10;84.80;;;;;;5092652;28;20234;-76
2021/03/10 03:30:52;;;;;;;46.90;42.20;;;5.10;87.20;;;;;;5092895;28;20191;-76
2021/03/10 03:33:20;;;;;;;45.95;41.17;;;5.20;85.80;;;;;;5092964;28;20195;-77
2021/03/10 03:35:51;;;;;;;48.65;43.70;;;5.10;87.20;;;;;;5092584;28;20198;-76
2021/03/10 03:38:19;;;;;;;48.83;43.15;;;5.10;86.00;;;;;;5092811;28;20576;-77
2021/03/10 03:40:48;;;;;;;49.35;44.67;;;5.10;85.30;;;;;;5092663;28;20191;-76
2021/03/10 03:43:15;;;;;;;48.65;43.65;;;5.10;84.70;;;;;;5092701;28;20195;-76
2021/03/10 03:45:42;;;;;;;52.17;46.80;;;5.10;84.40;;;;;;5092690;28;20230;-76
2021/03/10 03:48:09;;;;;;;47.65;42.80;;;5.00;86.80;;;;;;5092370;28;20201;-75
2021/03/10 03:50:35;;;;;;;48.55;43.30;;;5.00;85.80;;;;;;5092627;28;20673;-76
2021/03/10 03:53:01;;;;;;;103.03;48.50;;;5.00;85.30;;;;;;5092689;28;20231;-77
2021/03/10 03:55:29;;;;;;;50.38;45.25;;;4.90;88.40;;;;;;5092352;28;20248;-75
2021/03/10 03:57:55;;;;;;;51.17;45.92;;;4.80;89.10;;;;;;5092586;28;20198;-76
2021/03/10 04:00:25;;;;;;;47.28;42.67;;;4.80;87.60;;;;;;5092674;28;20199;-76
2021/03/10 04:02:52;;;;;;;47.30;42.63;;;4.80;87.10;;;;;;5092397;28;20196;-76
2021/03/10 04:05:20;;;;;;;48.72;43.42;;;4.90;86.50;;;;;;5092325;28;20709;-76
2021/03/10 04:07:48;;;;;;;49.35;44.40;;;4.80;86.20;;;;;;5092197;28;20209;-76
2021/03/10 04:10:15;;;;;;;49.20;44.30;;;4.80;86.20;;;;;;5092166;28;20212;-76
2021/03/10 04:12:42;;;;;;;52.63;46.97;;;4.90;86.00;;;;;;5092422;28;20199;-76
2021/03/10 04:15:10;;;;;;;50.88;45.67;;;4.80;86.00;;;;;;5092442;28;20199;-76
2021/03/10 04:17:37;;;;;;;50.30;45.42;;;4.80;86.30;;;;;;5092320;28;20195;-76
2021/03/10 04:20:08;;;;;;;49.70;44.60;;;4.80;86.20;;;;;;5092346;28;20245;-76
2021/03/10 04:22:34;;;;;;;49.50;44.20;;;4.80;86.00;;;;;;5092284;28;20332;-76
2021/03/10 04:25:00;;;;;;;49.60;45.10;;;4.70;86.30;;;;;;5096099;28;20192;-76
2021/03/10 04:27:27;;;;;;;51.22;46.17;;;4.60;86.70;;;;;;5095902;28;20301;-76
2021/03/10 04:29:54;;;;;;;50.05;44.67;;;4.70;86.60;;;;;;5096106;28;20671;-76
2021/03/10 04:32:20;;;;;;;51.67;46.00;;;4.60;86.60;;;;;;5096167;28;20234;-76
2021/03/10 04:34:47;;;;;;;51.83;46.33;;;4.60;87.10;;;;;;5095944;28;20210;-76
2021/03/10 04:37:13;;;;;;;51.67;45.33;;;4.60;87.10;;;;;;5095822;28;20290;-76
2021/03/10 04:39:39;;;;;;;49.60;44.30;;;4.60;87.10;;;;;;5095888;28;20219;-76
2021/03/10 04:42:07;;;;;;;80.38;48.53;;;4.60;87.10;;;;;;5095792;28;20223;-76
2021/03/10 04:44:33;;;;;;;51.42;45.80;;;4.60;87.40;;;;;;5095559;28;20202;-76
2021/03/10 04:47:00;;;;;;;50.25;44.85;;;4.60;90.50;;;;;;5095559;28;20245;-76
2021/03/10 04:49:27;;;;;;;52.30;46.60;;;4.60;90.20;;;;;;5095461;28;20215;-76
2021/03/10 04:51:53;;;;;;;50.80;45.60;;;4.70;89.30;;;;;;5095696;28;20195;-76
2021/03/10 04:54:20;;;;;;;51.33;45.88;;;4.70;90.90;;;;;;5095750;28;20223;-76
2021/03/10 04:56:46;;;;;;;48.80;43.80;;;4.70;90.00;;;;;;5095381;28;20198;-76
2021/03/10 04:59:12;;;;;;;50.17;44.42;;;4.70;88.90;;;;;;5095586;28;20219;-76
2021/03/10 05:01:39;;;;;;;53.00;47.67;;;4.70;88.20;;;;;;5095520;28;20252;-77
2021/03/10 05:04:06;;;;;;;59.83;48.20;;;4.60;87.90;;;;;;5095467;28;20637;-77
2021/03/10 05:06:32;;;;;;;53.72;47.20;;;4.70;89.30;;;;;;5095119;28;20268;-76
2021/03/10 05:08:59;;;;;;;54.53;45.97;;;4.80;89.40;;;;;;5095389;28;20272;-76
2021/03/10 05:11:25;;;;;;;52.63;46.78;;;4.80;92.30;;;;;;5095345;28;20213;-76
2021/03/10 05:13:51;;;;;;;52.15;46.25;;;4.90;90.70;;;;;;5095470;28;20191;-76
2021/03/10 05:16:18;;;;;;;52.60;46.80;;;4.90;88.90;;;;;;5095030;28;20243;-76
2021/03/10 05:18:45;;;;;;;51.85;46.30;;;4.90;88.00;;;;;;5095092;28;20211;-76
2021/03/10 05:21:12;;;;;;;52.03;46.30;;;4.90;87.80;;;;;;5095105;28;20282;-76
2021/03/10 05:23:41;;;;;;;51.67;46.28;;;4.90;87.60;;;;;;5095168;28;20198;-76
2021/03/10 05:26:08;;;;;;;53.45;46.50;;;4.90;90.40;;;;;;5094915;28;20223;-76
2021/03/10 05:28:34;;;;;;;52.63;45.30;;;5.00;87.50;;;;;;5094839;28;20215;-76
2021/03/10 05:31:00;;;;;;;52.83;47.42;;;5.10;85.60;;;;;;5094924;28;20196;-76
2021/03/10 05:33:27;;;;;;;53.92;48.40;;;5.00;85.50;;;;;;5094696;28;20202;-76
2021/03/10 05:35:53;;;;;;;52.17;46.50;;;4.90;85.90;;;;;;5093807;28;20198;-75
2021/03/10 05:38:20;;;;;;;51.80;46.42;;;4.80;86.20;;;;;;5094863;28;20223;-76
2021/03/10 05:40:46;;;;;;;50.58;45.35;;;4.80;86.40;;;;;;5094794;28;20191;-77
2021/03/10 05:43:13;;;;;;;53.38;47.80;;;4.80;88.10;;;;;;5094578;28;20198;-76
2021/03/10 05:45:41;;;;;;;52.17;46.47;;;4.80;88.70;;;;;;5094745;28;20215;-76
2021/03/10 05:48:08;;;;;;;48.47;43.40;;;4.90;88.90;;;;;;5094379;28;20195;-76
2021/03/10 05:50:34;;;;;;;54.38;47.22;;;5.00;87.70;;;;;;5094456;28;20207;-76
2021/03/10 05:53:03;;;;;;;51.90;46.35;;;5.10;86.50;;;;;;5094663;28;20199;-76
2021/03/10 05:55:33;;;;;;;51.90;45.83;;;5.10;86.10;;;;;;5094697;28;20198;-77
2021/03/10 05:57:59;;;;;;;54.33;45.67;;;5.00;85.90;;;;;;5094664;28;20272;-77
2021/03/10 06:00:26;;;;;;;49.60;44.55;;;5.00;85.90;;;;;;5094321;28;20552;-77
2021/03/10 06:02:53;;;;;;;48.95;44.00;;;5.10;85.40;;;;;;5094214;28;20514;-76
2021/03/10 06:05:21;;;;;;;51.40;45.75;;;5.10;84.70;;;;;;5094212;28;20206;-76
2021/03/10 06:07:59;;;;;;;53.00;45.25;;;5.00;86.80;;;;;;5094624;28;20199;-76
2021/03/10 06:10:40;;;;;;;52.33;46.70;;;5.00;90.60;;;;;;5094377;28;20199;-77
2021/03/10 06:13:18;;;;;;;53.28;45.80;;;5.00;88.40;;;;;;5094310;28;20196;-76
2021/03/10 06:15:45;;;;;;;51.67;45.78;;;5.00;87.70;;;;;;5093938;28;20244;-76
2021/03/10 06:18:28;;;;;;;52.35;46.95;;;5.10;87.20;;;;;;5094088;28;20196;-76
2021/03/10 06:21:06;;;;;;;52.60;47.30;;;5.20;85.90;;;;;;5094103;28;20203;-76
2021/03/10 06:23:33;;;;;;;49.47;44.28;;;5.40;84.40;;;;;;5093940;28;20191;-76
2021/03/10 06:26:00;;;;;;;84.47;49.38;;;5.40;83.80;;;;;;5093771;28;20566;-76
2021/03/10 06:28:37;;;;;;;49.92;44.72;;;5.40;85.20;;;;;;5093727;28;20271;-76
2021/03/10 06:31:04;;;;;;;48.80;43.63;;;5.40;86.70;;;;;;5093758;28;20199;-76
2021/03/10 06:33:30;;;;;;;49.88;44.55;;;5.40;85.90;;;;;;5093851;28;20195;-76
2021/03/10 06:35:56;;;;;;;50.22;44.85;;;5.40;85.10;;;;;;5093514;28;20198;-77
2021/03/10 06:38:23;;;;;;;52.65;47.10;;;5.60;84.10;;;;;;5093652;28;20306;-76
2021/03/10 06:40:55;;;;;;;54.05;47.13;;;5.60;83.50;;;;;;5093616;28;20195;-76
2021/03/10 06:43:37;;;;;;;48.35;43.25;;;5.70;84.30;;;;;;5093482;28;20203;-76
2021/03/10 06:46:14;;;;;;;53.53;47.78;;;5.80;83.70;;;;;;5093261;28;20313;-77
2021/03/10 06:48:55;;;;;;;49.17;44.05;;;5.90;83.10;;;;;;5093278;28;20215;-76
2021/03/10 06:51:22;;;;;;;51.03;44.05;;;5.90;83.40;;;;;;5093525;28;20249;-76
2021/03/10 06:53:49;;;;;;;56.05;46.17;;;6.00;82.40;;;;;;5093464;28;20234;-76
2021/03/10 06:56:23;;;;;;;53.58;45.97;;;6.00;82.00;;;;;;5093195;28;20601;-76
2021/03/10 06:59:02;;;;;;;49.88;44.97;;;6.10;81.50;;;;;;5093172;28;20218;-76
2021/03/10 07:01:36;;;;;;;50.97;45.60;;;6.00;81.60;;;;;;5093325;28;20195;-76
2021/03/10 07:04:04;;;;;;;48.92;43.80;;;6.00;84.20;;;;;;5093109;28;20206;-77
2021/03/10 07:06:31;;;;;;;52.00;45.63;;;6.00;83.90;;;;;;5093000;28;20795;-76
2021/03/10 07:08:59;;;;;;;50.25;44.40;;;6.10;82.20;;;;;;5093003;28;20216;-76
2021/03/10 07:11:25;;;;;;;52.70;46.97;;;6.20;81.60;;;;;;5093059;28;20203;-76
2021/03/10 07:13:51;;;;;;;50.75;44.53;;;6.20;81.50;;;;;;5093139;28;20535;-76
2021/03/10 07:16:19;;;;;;;50.85;45.60;;;6.20;81.90;;;;;;5092932;28;20287;-76
2021/03/10 07:18:47;;;;;;;50.40;44.78;;;6.30;83.40;;;;;;5093104;28;20276;-77
2021/03/10 07:21:22;;;;;;;52.67;47.20;;;6.30;82.40;;;;;;5092930;28;20209;-76
2021/03/10 07:23:51;;;;;;;48.67;43.88;;;6.30;83.70;;;;;;5092954;28;20192;-76
2021/03/10 07:26:19;;;;;;;53.00;46.67;;;6.30;84.30;;;;;;5092729;28;20225;-76
2021/03/10 07:28:50;;;;;;;52.72;47.13;;;6.60;81.70;;;;;;5092790;28;20217;-76
2021/03/10 07:31:22;;;;;;;54.95;45.28;;;6.70;80.80;;;;;;5092930;28;20207;-77
2021/03/10 07:33:53;;;;;;;53.28;47.97;;;6.70;79.50;;;;;;5092935;28;20324;-76
2021/03/10 07:36:30;;;;;;;50.63;45.30;;;6.80;79.50;;;;;;5092557;28;20191;-76
2021/03/10 07:38:57;;;;;;;50.45;45.03;;;6.80;79.70;;;;;;5092840;28;20221;-77
2021/03/10 07:41:32;;;;;;;51.95;46.55;;;6.80;79.60;;;;;;5092681;28;20614;-76
2021/03/10 07:43:59;;;;;;;53.17;47.70;;;6.90;79.30;;;;;;5092641;28;20659;-76
2021/03/10 07:46:28;;;;;;;52.65;47.22;;;6.90;78.80;;;;;;5092506;28;20263;-76
2021/03/10 07:48:55;;;;;;;51.10;45.70;;;7.00;78.20;;;;;;5092248;28;20769;-76
2021/03/10 07:51:30;;;;;;;50.53;45.45;;;7.00;78.30;;;;;;5092718;28;20325;-77
2021/03/10 07:53:58;;;;;;;50.30;45.10;;;7.00;78.30;;;;;;5092875;28;20198;-76
2021/03/10 07:56:29;;;;;;;55.70;47.75;;;7.00;78.20;;;;;;5092351;28;20282;-77
2021/03/10 07:59:07;;;;;;;51.88;46.60;;;7.10;78.10;;;;;;5094724;28;20228;-76
2021/03/10 08:01:34;;;;;;;51.92;46.70;;;7.10;78.40;;;;;;5096637;28;20199;-76
2021/03/10 08:04:11;;;;;;;50.03;45.10;;;7.00;81.10;;;;;;5096477;28;20206;-76
2021/03/10 08:06:45;;;;;;;51.33;46.30;;;7.10;79.40;;;;;;5096407;28;20215;-76
2021/03/10 08:09:13;;;;;;;53.75;48.25;;;7.30;78.50;;;;;;5096457;28;20763;-76
2021/03/10 08:11:43;;;;;;;50.63;45.63;;;7.50;77.40;;;;;;5096659;28;20207;-76
2021/03/10 08:14:10;;;;;;;50.65;45.55;;;7.60;76.70;;;;;;5096438;28;20206;-76
2021/03/10 08:16:46;;;;;;;53.67;48.25;;;7.70;76.10;;;;;;5096181;28;20188;-76
2021/03/10 08:19:12;;;;;;;50.03;44.92;;;7.90;77.50;;;;;;5096268;28;20218;-76
2021/03/10 08:21:49;;;;;;;53.65;48.60;;;7.90;79.40;;;;;;5096549;28;20199;-76
2021/03/10 08:24:16;;;;;;;50.78;45.65;;;7.90;75.70;;;;;;5096407;28;20195;-77
2021/03/10 08:26:43;;;;;;;52.35;47.10;;;8.00;74.80;;;;;;5096167;28;20607;-76
2021/03/10 08:29:09;;;;;;;48.63;44.00;;;8.20;74.70;;;;;;5096268;28;20219;-76
2021/03/10 08:31:48;;;;;;;49.85;45.15;;;8.50;73.10;;;;;;5096224;28;20195;-76
2021/03/10 08:34:15;;;;;;;49.60;44.90;;;8.70;73.00;;;;;;5096262;28;20199;-76
2021/03/10 08:36:41;;;;;;;52.28;47.03;;;8.80;71.60;;;;;;5095866;28;20217;-77
2021/03/10 08:39:10;;;;;;;53.78;48.17;;;8.90;71.30;;;;;;5095853;28;20219;-76
2021/03/10 08:41:45;;;;;;;51.55;46.38;;;9.00;71.10;;;;;;5095875;28;20282;-76
2021/03/10 08:44:12;;;;;;;51.03;46.08;;;9.10;70.50;;;;;;5095836;28;20199;-76
2021/03/10 08:46:39;;;;;;;51.60;46.60;;;9.20;70.50;;;;;;5095817;28;20310;-77
2021/03/10 08:49:27;;;;;;;52.47;47.45;;;9.30;69.90;;;;;;5095534;28;20302;-77
2021/03/10 08:52:05;;;;;;;52.97;47.65;;;9.40;70.10;;;;;;5095794;28;20206;-76
2021/03/10 08:54:32;;;;;;;52.20;47.33;;;9.40;70.00;;;;;;5095726;28;20199;-77
2021/03/10 08:56:58;;;;;;;54.90;49.38;;;9.50;70.70;;;;;;5095420;28;20191;-77
2021/03/10 08:59:34;;;;;;;51.17;46.53;;;9.60;74.80;;;;;;5095534;28;20258;-77
2021/03/10 09:02:01;;;;;;;51.55;46.65;;;9.70;72.90;;;;;;5095615;28;20600;-77
2021/03/10 09:04:29;;;;;;;51.23;46.37;;;9.90;69.70;;;;;;5095389;28;20276;-77
2021/03/10 09:06:57;;;;;;;52.03;47.37;;;10.00;68.20;;;;;;5095108;28;21005;-76
2021/03/10 09:09:24;;;;;;;52.25;47.13;;;10.30;67.10;;;;;;5095372;28;20473;-76
2021/03/10 09:11:52;;;;;;;49.27;44.70;;;10.30;66.80;;;;;;5095527;28;20646;-76
2021/03/10 09:14:18;;;;;;;49.58;44.85;;;10.40;66.80;;;;;;5095307;28;20457;-76
2021/03/10 09:16:52;;;;;;;51.33;46.72;;;10.50;65.80;;;;;;5095172;28;20282;-77
2021/03/10 09:19:30;;;;;;;48.43;43.93;;;10.20;66.50;;;;;;5095212;28;20211;-76
2021/03/10 09:22:14;;;;;;;50.13;45.43;;;10.20;67.50;;;;;;5095238;28;20449;-77
2021/03/10 09:24:52;;;;;;;50.00;45.30;;;10.30;66.80;;;;;;5095244;28;20447;-77
2021/03/10 09:27:24;;;;;;;47.70;43.20;;;10.50;66.10;;;;;;5094977;28;20476;-76
2021/03/10 09:29:52;;;;;;;52.67;48.07;;;10.70;65.80;;;;;;5095017;28;20544;-77
2021/03/10 09:32:19;;;;;;;48.10;43.60;;;10.80;65.10;;;;;;5095055;28;20445;-76
2021/03/10 09:34:51;;;;;;;49.93;45.30;;;10.90;66.30;;;;;;5095063;28;20818;-76
2021/03/10 09:37:23;;;;;;;48.60;44.20;;;10.90;63.70;;;;;;5094728;28;20459;-76
2021/03/10 09:39:50;;;;;;;49.80;45.30;;;10.70;64.30;;;;;;5094834;28;20473;-77
2021/03/10 09:42:17;;;;;;;49.97;45.13;;;10.80;64.20;;;;;;5094777;28;20449;-77
2021/03/10 09:44:45;;;;;;;50.43;45.33;;;10.90;64.10;;;;;;5094431;28;20855;-77
2021/03/10 09:47:17;;;;;;;50.10;45.70;;;11.00;64.00;;;;;;5094339;28;20982;-77
2021/03/10 09:49:49;;;;;;;48.17;43.73;;;11.00;62.60;;;;;;5094296;28;21016;-77
2021/03/10 09:52:16;;;;;;;46.80;42.67;;;11.00;62.70;;;;;;5094647;28;20479;-77
2021/03/10 09:54:53;;;;;;;42.80;39.00;;;10.90;64.00;;;;;;5094755;28;21034;-76
2021/03/10 09:57:24;;;;;;;45.10;41.10;;;10.80;62.30;;;;;;5094343;28;20560;-76
2021/03/10 09:59:51;;;;;;;42.30;38.73;;;10.80;60.90;;;;;;5094347;28;20546;-76
2021/03/10 10:02:18;;;;;;;43.75;39.90;;;10.60;60.00;;;;;;5094451;28;20456;-77
2021/03/10 10:04:49;;;;;;;41.90;38.30;;;10.40;60.30;;;;;;5094377;28;20580;-76
2021/03/10 10:07:16;;;;;;;42.20;38.70;;;10.10;62.80;;;;;;5094146;28;20477;-76
2021/03/10 10:09:42;;;;;;;41.08;37.58;;;10.10;61.80;;;;;;5094285;28;20522;-76
2021/03/10 10:12:10;;;;;;;41.90;38.35;;;10.10;60.70;;;;;;5094298;28;20237;-76
2021/03/10 10:14:36;;;;;;;41.05;37.67;;;9.90;61.10;;;;;;5094254;28;20201;-76
2021/03/10 10:17:04;;;;;;;42.58;38.75;;;9.60;62.00;;;;;;5094039;28;20554;-76
2021/03/10 10:19:31;;;;;;;44.25;40.40;;;9.50;62.10;;;;;;5093980;28;20310;-76
2021/03/10 10:21:57;;;;;;;42.75;38.90;;;9.40;63.10;;;;;;5093931;28;20349;-76
2021/03/10 10:24:24;;;;;;;41.67;37.97;;;9.30;63.70;;;;;;5094095;28;20199;-77
2021/03/10 10:26:50;;;;;;;41.50;38.00;;;9.30;63.30;;;;;;5093638;28;20745;-76
2021/03/10 10:29:17;;;;;;;43.42;39.33;;;9.50;63.30;;;;;;5093754;28;20221;-76
2021/03/10 10:31:43;;;;;;;42.22;38.78;;;9.80;62.20;;;;;;5093950;28;20286;-76
2021/03/10 10:34:10;;;;;;;41.00;37.50;;;10.20;60.80;;;;;;5093834;28;20243;-76
2021/03/10 10:36:36;;;;;;;37.78;34.72;;;10.50;59.90;;;;;;5093638;28;20217;-76
2021/03/10 10:39:03;;;;;;;37.13;34.13;;;10.60;58.70;;;;;;5093701;28;20219;-76
2021/03/10 10:41:30;;;;;;;37.83;34.77;;;10.70;58.00;;;;;;5093516;28;20264;-77
2021/03/10 10:43:56;;;;;;;38.07;34.90;;;10.80;57.60;;;;;;5093470;28;20923;-76
2021/03/10 10:46:23;;;;;;;36.30;33.50;;;10.80;60.20;;;;;;5093288;28;20477;-76
2021/03/10 10:48:50;;;;;;;36.00;33.20;;;11.00;56.50;;;;;;5093218;28;20480;-77
2021/03/10 10:51:19;;;;;;;30.80;28.70;;;11.20;55.70;;;;;;5093591;28;20453;-76
2021/03/10 10:53:45;;;;;;;31.70;29.50;;;11.20;52.00;;;;;;5093382;28;20544;-76
2021/03/10 10:56:11;;;;;;;30.27;28.20;;;10.90;53.10;;;;;;5093198;28;20441;-77
2021/03/10 10:58:38;;;;;;;32.83;30.30;;;10.80;53.10;;;;;;5093258;28;20477;-76
2021/03/10 11:01:05;;;;;;;32.30;29.93;;;10.70;54.00;;;;;;5093284;28;20460;-76
2021/03/10 11:03:31;;;;;;;30.97;28.97;;;10.80;54.50;;;;;;5093195;28;20461;-77
2021/03/10 11:05:57;;;;;;;28.93;27.00;;;11.10;52.50;;;;;;5093070;28;20469;-76
2021/03/10 11:08:25;;;;;;;28.57;26.70;;;11.10;51.00;;;;;;5093043;28;20866;-77
2021/03/10 11:10:51;;;;;;;28.80;27.03;;;11.20;50.20;;;;;;5093213;28;20935;-77
2021/03/10 11:13:18;;;;;;;30.00;28.20;;;11.20;49.40;;;;;;5093150;28;20581;-76
2021/03/10 11:15:45;;;;;;;29.33;27.20;;;11.00;49.80;;;;;;5092765;28;20457;-76
2021/03/10 11:18:11;;;;;;;28.10;26.30;;;10.70;50.40;;;;;;5092951;28;20943;-76
2021/03/10 11:20:37;;;;;;;28.05;26.05;;;10.60;51.50;;;;;;5093096;28;20445;-76
2021/03/10 11:23:04;;;;;;;28.47;26.60;;;10.50;50.80;;;;;;5092913;28;20195;-76
2021/03/10 11:25:30;;;;;;;27.43;25.63;;;10.40;50.60;;;;;;5092805;28;20449;-77
2021/03/10 11:27:57;;;;;;;27.20;25.50;;;10.30;50.80;;;;;;5092848;28;20477;-77
2021/03/10 11:30:24;;;;;;;27.57;25.57;;;10.40;50.10;;;;;;5092953;28;20548;-76
2021/03/10 11:32:51;;;;;;;28.67;26.63;;;10.20;50.30;;;;;;5091896;28;20453;-76
2021/03/10 11:35:18;;;;;;;28.30;26.30;;;10.30;50.90;;;;;;5092849;28;20728;-76
2021/03/10 11:37:46;;;;;;;26.53;24.93;;;10.60;50.70;;;;;;5092492;28;20816;-76
2021/03/10 11:40:13;;;;;;;26.73;25.03;;;10.70;49.60;;;;;;5092681;28;20888;-76
2021/03/10 11:42:40;;;;;;;26.43;24.67;;;10.70;49.40;;;;;;5092852;28;20457;-76
2021/03/10 11:45:07;;;;;;;29.40;27.47;;;10.80;49.50;;;;;;5092277;28;20455;-76
2021/03/10 11:47:34;;;;;;;28.00;26.20;;;10.80;49.80;;;;;;5092474;28;20477;-76
2021/03/10 11:50:01;;;;;;;27.90;26.20;;;11.10;49.70;;;;;;5092323;28;21013;-76
2021/03/10 11:52:27;;;;;;;26.53;24.83;;;11.30;49.10;;;;;;5092487;28;20923;-76
2021/03/10 11:54:54;;;;;;;27.10;25.50;;;11.10;48.20;;;;;;5092647;28;20864;-77
2021/03/10 11:57:20;;;;;;;26.47;24.90;;;11.10;48.60;;;;;;5092604;28;20460;-77
2021/03/10 11:59:46;;;;;;;27.93;26.30;;;11.10;48.30;;;;;;5092456;28;20472;-76
2021/03/10 12:02:13;;;;;;;28.50;26.10;;;10.80;48.80;;;;;;5092503;28;20457;-77
2021/03/10 12:04:39;;;;;;;29.23;27.13;;;10.80;49.50;;;;;;5092416;28;20548;-76
2021/03/10 12:07:06;;;;;;;31.30;29.23;;;10.80;49.80;;;;;;5092128;28;20509;-76
2021/03/10 12:09:33;;;;;;;29.07;27.17;;;10.90;50.10;;;;;;5092463;28;20484;-76
2021/03/10 12:12:00;;;;;;;29.77;27.70;;;11.20;52.50;;;;;;5092541;28;20463;-76
2021/03/10 12:14:26;;;;;;;30.20;28.00;;;11.50;49.80;;;;;;5092596;28;20448;-77
2021/03/10 12:16:53;;;;;;;31.03;28.70;;;11.90;48.70;;;;;;5092165;28;20457;-77
2021/03/10 12:19:20;;;;;;;27.90;26.10;;;11.70;48.30;;;;;;5092487;28;20469;-76
2021/03/10 12:21:47;;;;;;;28.50;26.40;;;11.70;47.70;;;;;;5092288;28;20457;-77
2021/03/10 12:24:14;;;;;;;28.43;26.53;;;11.60;47.90;;;;;;5092247;28;20818;-76
2021/03/10 12:26:40;;;;;;;28.70;26.90;;;11.80;48.10;;;;;;5092063;28;21012;-76
2021/03/10 12:29:07;;;;;;;27.43;25.63;;;11.80;47.40;;;;;;5092230;28;20526;-77
2021/03/10 12:31:33;;;;;;;28.77;26.77;;;11.60;47.40;;;;;;5092314;28;20526;-77
2021/03/10 12:34:00;;;;;;;27.80;26.00;;;11.40;47.80;;;;;;5092361;28;20453;-77
2021/03/10 12:36:26;;;;;;;28.10;26.30;;;11.40;47.80;;;;;;5092008;28;20445;-77
2021/03/10 12:38:52;;;;;;;28.27;26.50;;;11.50;47.60;;;;;;5092212;28;21004;-76